Historyczne dane pomiarowe

Dodano dane terminowe – wersja testowa.

Dane z okresu 1951-2019

Wersja bazy: 1.34 [2019-03-16, lista zmian], aktualizacja planowana na 2019-04-15

Dane meteo z obszaru Polski uzyskane na podstawie danych udostępnionych przez Instytut Meteorologii i Gospodarki Wodnej – Państwowy Instytut Badawczy.

 

Wybierz Datę:    

       

TemperaturaWilgotnośćWiatrCiśnienieOpadyŚniegCzas trwania zjawisk
 Stacja t tx tn tng RH VA  wxwx mslp ppp RRR   cm mm wxwxwxwxwxwxwx
1999-08-14 16.2 21.0 10.3- 93.8- 6.3 1.7---- 0.0------------
1999-08-13 16.4 20.9 11.3- 96.8- 6.7 1.0---- 0.0------------
1999-08-12 17.1 20.9 13.8- 94.0- 7.7 1.7---- 0.2------------
1999-08-11 20.0 24.9 16.0- 97.0- 6.0 1.0---- 6.2------------
1999-08-10 21.3 29.2 16.1- 97.5- 7.0 1.0---- 3.2------------
1999-08-09 22.7 31.2 17.0- 96.3- 4.7 1.7---- 11.4------------
1999-08-08 23.5 30.1 17.1- 95.8- 5.7 1.3---- 0.0------------
1999-08-07 22.2 29.7 14.4- 92.8- 5.0 1.3---- 0.0------------
1999-08-06 19.7 26.6 10.9- 93.3- 6.3 2.0---- 0.0------------
1999-08-05 18.7 26.4 10.8- 94.3- 6.0 1.0---- 7.2------------
1999-08-04 17.7 25.4 10.0- 96.8- 6.0 1.0---- 0.0------------
1999-08-03 17.6 23.4 12.0- 96.8- 6.0 1.0---- 0.0------------
1999-08-02 17.1 22.0 12.0- 95.3- 6.3 1.3---- 0.0------------
1999-08-01 16.8 23.4 10.3- 95.8- 5.0 1.0---- 0.0------------
1999-07-31 17.9 25.6 10.3- 94.8- 6.0 1.0---- 0.0------------
1999-07-30 18.4 25.1 10.9- 95.3- 4.0 1.0---- 0.0------------
1999-07-29 18.5 23.6 12.9- 95.3- 4.7 2.0---- 0.0------------
1999-07-28 19.4 25.1 13.0- 97.5- 6.0 1.0---- 0.0------------
1999-07-27 18.8 25.4 13.1- 98.3- 7.7 2.0---- 0.1------------
1999-07-26 20.6 27.1 12.9- 94.8- 6.0 1.0---- 17.2------------
1999-07-25 19.2 24.1 12.9- 94.3- 5.7 1.0---- 0.0------------
1999-07-24 16.9 22.0 12.2- 95.5- 7.0 1.7---- 0.0------------
1999-07-23 16.1 21.4 13.2- 97.3- 7.7 2.0---- 12.2------------
1999-07-22 20.5 23.9 16.3- 92.8- 6.7 1.7---- 4.3------------
1999-07-21 22.3 28.0 16.3- 92.3- 5.0 2.0---- 0.0------------
1999-07-20 22.8 29.5 15.0- 95.0- 3.0 1.3---- 0.0------------
1999-07-19 20.9 28.4 12.3- 92.0- 3.0 1.0---- 0.0------------
1999-07-18 19.3 26.2 10.3- 89.0- 4.0 1.0---- 0.0------------
1999-07-17 19.1 23.0 15.4- 93.8- 4.7 1.7---- 1.2------------
1999-07-16 17.8 22.0 12.9- 95.5- 6.3 1.7---- 0.0------------
1999-07-15 17.9 21.6 14.9- 94.8- 5.3 2.3---- 0.0------------
1999-07-14 21.0 27.0 16.9- 95.3- 7.3 1.0---- 9.4------------
1999-07-13 21.3 26.2 16.9- 97.5- 6.0 1.0---- 1.7------------
1999-07-12 21.2 28.0 15.0- 94.8- 6.3 1.0---- 2.3------------
1999-07-11 19.2 22.9 15.7- 96.8- 7.7 1.0---- 3.3------------
1999-07-10 20.0 23.4 16.4- 95.8- 7.3 1.7---- 4.2------------
1999-07-09 19.6 22.0 16.1- 96.0- 7.7 1.0---- 2.7------------
1999-07-08 19.5 22.4 17.6- 96.8- 8.0 2.0---- 11.4------------
1999-07-07 23.8 31.0 20.0- 94.3- 7.3 2.0---- 11.4------------
1999-07-06 24.6 33.1 12.9- 86.3- 2.7 1.3---- 0.0------------
1999-07-05 26.2 33.2 19.0- 89.0- 3.0 1.0---- 0.0------------
1999-07-04 23.5 31.2 14.0- 94.3- 3.0 1.3---- 0.0------------
1999-07-03 21.4 26.1 16.1- 91.8- 3.7 2.0---- 0.0------------
1999-07-02 21.3 25.7 16.4- 97.5- 4.7 1.3---- 0.0------------
1999-07-01 19.5 26.6 12.9- 96.3- 5.3 1.0---- 0.8------------
1999-06-30 20.4 26.3 13.9- 95.0- 4.7 1.0---- 0.0------------
1999-06-29 20.0 26.1 13.4- 90.5- 5.3 1.3---- 0.0------------
1999-06-28 20.3 28.5 13.3- 94.5- 4.7 1.0---- 0.0------------
1999-06-27 20.0 28.6 10.3- 92.3- 3.7 1.0---- 0.0------------
1999-06-26 17.1 25.1 7.8- 93.5- 4.3 1.0---- 0.0------------
1999-06-25 15.4 20.0 11.3- 93.0- 3.3 1.7---- 0.0------------
1999-06-24 12.1 15.1 7.8- 94.8- 7.0 1.0---- 0.0------------
1999-06-23 9.6 11.6 7.1- 96.5- 8.0 1.7---- 5.8------------
1999-06-22 11.9 18.2 9.1- 96.5- 8.0 2.3---- 28.4------------
1999-06-21 19.0 24.3 14.4- 94.0- 6.0 1.3---- 28.6------------
1999-06-20 18.5 22.4 14.3- 94.3- 7.0 1.0---- 0.0------------
1999-06-19 15.9 18.9 13.4- 96.8- 7.3 2.0---- 0.0------------
1999-06-18 18.2 20.9 16.0- 97.5- 8.0 2.0---- 2.1------------
1999-06-17 19.0 22.4 16.0- 96.5- 7.0 1.0---- 25.2------------
1999-06-16 17.6 20.1 15.0- 97.8- 7.7 1.7---- 4.1------------
286.4 ms

 

Źródłem pochodzenia danych jest Instytut Meteorologii i Gospodarki Wodnej – Państwowy Instytut Badawczy. Dane Instytutu Meteorologii i Gospodarki Wodnej – Państwowego Instytutu Badawczego zostały przetworzone.

Dane źródłowe można odnaleźć na stronie https://dane.imgw.pl